createdAt,value
2022-10-04T00:01:50.145Z,5.26
2022-10-04T00:04:28.074Z,5.25
2022-10-04T00:07:14.654Z,5.26
2022-10-04T00:09:58.203Z,5.21
2022-10-04T00:12:33.382Z,5.21
2022-10-04T00:15:05.491Z,5.20
2022-10-04T00:17:32.855Z,5.19
2022-10-04T00:19:59.471Z,5.17
2022-10-04T00:22:26.843Z,5.16
2022-10-04T00:25:08.491Z,5.15
2022-10-04T00:27:36.735Z,5.09
2022-10-04T00:30:03.108Z,5.07
2022-10-04T00:32:38.687Z,5.03
2022-10-04T00:35:25.034Z,4.97
2022-10-04T00:37:58.438Z,4.83
2022-10-04T00:40:31.504Z,4.78
2022-10-04T00:43:19.768Z,4.70
2022-10-04T00:45:51.529Z,4.70
2022-10-04T00:48:38.148Z,4.71
2022-10-04T00:51:43.799Z,4.72
2022-10-04T00:54:18.239Z,4.70
2022-10-04T00:57:07.591Z,4.71
2022-10-04T00:59:48.045Z,4.72
2022-10-04T01:02:17.428Z,4.64
2022-10-04T01:04:51.713Z,4.63
2022-10-04T01:07:27.157Z,4.61
2022-10-04T01:09:58.633Z,4.60
2022-10-04T01:12:42.338Z,4.56
2022-10-04T01:15:16.255Z,4.62
2022-10-04T01:18:18.589Z,4.56
2022-10-04T01:21:02.828Z,4.49
2022-10-04T01:23:47.548Z,4.48
2022-10-04T01:26:29.000Z,4.51
2022-10-04T01:28:55.361Z,4.50
2022-10-04T01:31:22.269Z,4.51
2022-10-04T01:33:48.765Z,4.54
2022-10-04T01:36:15.624Z,4.52
2022-10-04T01:38:42.141Z,4.48
2022-10-04T01:41:10.945Z,4.38
2022-10-04T01:43:42.393Z,4.41
2022-10-04T01:46:15.345Z,4.45
2022-10-04T01:48:45.786Z,4.39
2022-10-04T01:51:30.232Z,4.39
2022-10-04T01:54:02.437Z,4.37
2022-10-04T01:56:39.328Z,4.37
2022-10-04T01:59:13.550Z,4.38
2022-10-04T02:01:52.987Z,4.37
2022-10-04T02:04:27.013Z,4.39
2022-10-04T02:06:57.373Z,4.42
2022-10-04T02:09:31.987Z,4.46
2022-10-04T02:11:58.930Z,4.39
2022-10-04T02:14:30.798Z,4.36
2022-10-04T02:16:58.697Z,4.30
2022-10-04T02:19:32.346Z,4.32
2022-10-04T02:22:00.923Z,4.27
2022-10-04T02:24:27.509Z,4.21
2022-10-04T02:26:54.208Z,4.16
2022-10-04T02:29:23.848Z,4.19
2022-10-04T02:31:51.798Z,4.13
2022-10-04T02:34:19.192Z,3.96
2022-10-04T02:36:45.934Z,3.92
2022-10-04T02:39:20.590Z,3.92
2022-10-04T02:42:04.022Z,3.86
2022-10-04T02:44:34.575Z,3.87
2022-10-04T02:47:23.915Z,4.00
2022-10-04T02:49:57.891Z,4.08
2022-10-04T02:52:36.278Z,4.05
2022-10-04T02:55:09.516Z,4.09
2022-10-04T02:57:36.359Z,4.16
2022-10-04T03:00:18.017Z,4.21
2022-10-04T03:03:12.001Z,4.29
2022-10-04T03:05:40.313Z,4.23
2022-10-04T03:08:07.791Z,4.28
2022-10-04T03:10:35.498Z,4.27
2022-10-04T03:13:03.866Z,4.29
2022-10-04T03:15:31.510Z,4.22
2022-10-04T03:17:59.752Z,4.23
2022-10-04T03:20:26.642Z,4.17
2022-10-04T03:22:56.040Z,4.15
2022-10-04T03:25:28.155Z,4.14
2022-10-04T03:27:56.953Z,4.21
2022-10-04T03:30:23.618Z,4.18
2022-10-04T03:32:50.818Z,4.20
2022-10-04T03:35:31.126Z,4.24
2022-10-04T03:37:59.732Z,4.14
2022-10-04T03:40:30.442Z,4.18
2022-10-04T03:42:59.018Z,4.21
2022-10-04T03:45:27.835Z,4.31
2022-10-04T03:48:06.453Z,4.28
2022-10-04T03:50:45.464Z,4.25
2022-10-04T03:53:29.589Z,4.34
2022-10-04T03:55:58.244Z,4.43
2022-10-04T03:58:30.864Z,4.39
2022-10-04T04:01:29.480Z,4.43
2022-10-04T04:04:33.462Z,4.40
2022-10-04T04:07:06.571Z,4.45
2022-10-04T04:09:38.896Z,4.40
2022-10-04T04:12:11.460Z,4.43
2022-10-04T04:14:41.130Z,4.51
2022-10-04T04:17:47.015Z,4.55
2022-10-04T04:20:18.637Z,4.47
2022-10-04T04:22:52.329Z,4.42
2022-10-04T04:25:18.936Z,4.40
2022-10-04T04:27:47.530Z,4.34
2022-10-04T04:30:17.855Z,4.37
2022-10-04T04:32:51.438Z,4.38
2022-10-04T04:35:32.916Z,4.37
2022-10-04T04:38:06.857Z,4.34
2022-10-04T04:40:33.465Z,4.36
2022-10-04T04:43:02.001Z,4.29
2022-10-04T04:45:30.611Z,4.31
2022-10-04T04:47:58.519Z,4.33
2022-10-04T04:50:28.815Z,4.32
2022-10-04T04:53:00.417Z,4.23
2022-10-04T04:55:44.515Z,4.07
2022-10-04T04:58:20.069Z,4.06
2022-10-04T05:00:54.750Z,4.09
2022-10-04T05:03:21.690Z,4.11
2022-10-04T05:05:48.235Z,4.00
2022-10-04T05:08:19.692Z,4.08
2022-10-04T05:10:58.528Z,4.07
2022-10-04T05:13:36.982Z,4.16
2022-10-04T05:16:03.556Z,4.06
2022-10-04T05:18:31.171Z,4.16
2022-10-04T05:21:04.568Z,3.94
2022-10-04T05:23:30.940Z,4.02
2022-10-04T05:25:57.858Z,4.12
2022-10-04T05:28:24.368Z,4.05
2022-10-04T05:31:24.422Z,4.00
2022-10-04T05:33:55.192Z,4.06
2022-10-04T05:36:34.312Z,4.13
2022-10-04T05:39:22.566Z,4.21
2022-10-04T05:41:56.433Z,4.18
2022-10-04T05:44:35.099Z,4.19
2022-10-04T05:47:05.623Z,4.21
2022-10-04T05:49:42.117Z,4.16
2022-10-04T05:52:16.274Z,4.11
2022-10-04T05:54:42.846Z,4.16
2022-10-04T05:57:33.539Z,4.24
2022-10-04T06:00:21.063Z,4.22
2022-10-04T06:02:47.546Z,4.23
2022-10-04T06:05:29.388Z,4.27
2022-10-04T06:08:29.156Z,4.40
2022-10-04T06:11:13.743Z,4.51
2022-10-04T06:14:22.530Z,4.51
2022-10-04T06:17:03.999Z,4.50
2022-10-04T06:19:51.459Z,4.56
2022-10-04T06:22:20.156Z,4.60
2022-10-04T06:25:07.646Z,4.59
2022-10-04T06:27:40.030Z,4.60
2022-10-04T06:30:15.221Z,4.62
2022-10-04T06:33:08.709Z,4.76
2022-10-04T06:35:38.194Z,4.74
2022-10-04T06:38:30.858Z,4.75
2022-10-04T06:41:03.280Z,4.82
2022-10-04T06:43:47.924Z,4.84
2022-10-04T06:46:34.699Z,4.85
2022-10-04T06:49:20.853Z,4.95
2022-10-04T06:51:59.430Z,5.24
2022-10-04T06:54:55.420Z,4.84
2022-10-04T06:57:43.240Z,4.89
2022-10-04T07:00:18.635Z,4.99
2022-10-04T07:03:11.459Z,5.03
2022-10-04T07:05:52.862Z,5.04
2022-10-04T07:08:24.637Z,5.42
2022-10-04T07:10:56.945Z,5.32
2022-10-04T07:13:56.469Z,5.38
2022-10-04T07:16:51.714Z,5.54
2022-10-04T07:19:33.317Z,5.55
2022-10-04T07:22:14.144Z,5.62
2022-10-04T07:25:17.864Z,5.69
2022-10-04T07:27:58.199Z,5.61
2022-10-04T07:30:24.696Z,5.56
2022-10-04T07:32:51.926Z,5.55
2022-10-04T07:35:55.104Z,5.78
2022-10-04T07:38:29.046Z,5.78
2022-10-04T07:40:58.441Z,6.03
2022-10-04T07:43:32.738Z,5.98
2022-10-04T07:46:11.071Z,6.06
2022-10-04T07:48:40.995Z,6.22
2022-10-04T07:51:19.689Z,6.25
2022-10-04T07:53:53.668Z,6.28
2022-10-04T07:56:35.258Z,6.09
2022-10-04T07:59:17.054Z,6.11
2022-10-04T08:01:52.447Z,6.34
2022-10-04T08:05:09.982Z,6.51
2022-10-04T08:07:45.410Z,6.57
2022-10-04T08:10:22.810Z,6.69
2022-10-04T08:13:05.601Z,6.71
2022-10-04T08:15:40.484Z,6.82
2022-10-04T08:18:20.565Z,7.25
2022-10-04T08:20:53.862Z,7.47
2022-10-04T08:23:39.270Z,7.51
2022-10-04T08:26:26.857Z,7.60
2022-10-04T08:28:53.277Z,7.78
2022-10-04T08:31:38.546Z,7.84
2022-10-04T08:34:29.805Z,8.16
2022-10-04T08:37:01.941Z,8.05
2022-10-04T08:40:12.998Z,8.30
2022-10-04T08:43:16.616Z,8.64
2022-10-04T08:46:06.411Z,8.46
2022-10-04T08:48:51.010Z,8.43
2022-10-04T08:51:54.419Z,8.65
2022-10-04T08:54:45.099Z,9.06
2022-10-04T08:57:15.870Z,9.46
2022-10-04T09:00:11.522Z,9.51
2022-10-04T09:03:25.304Z,9.41
2022-10-04T09:06:13.009Z,9.94
2022-10-04T09:09:13.335Z,9.71
2022-10-04T09:12:12.713Z,9.56
2022-10-04T09:14:56.565Z,9.47
2022-10-04T09:17:46.460Z,10.23
2022-10-04T09:20:38.889Z,10.65
2022-10-04T09:23:24.173Z,10.99
2022-10-04T09:25:56.651Z,10.80
2022-10-04T09:28:44.894Z,11.38
2022-10-04T09:31:23.319Z,11.85
2022-10-04T09:34:37.470Z,12.30
2022-10-04T09:37:32.145Z,11.84
2022-10-04T09:40:10.978Z,12.43
2022-10-04T09:43:04.448Z,12.27
2022-10-04T09:46:06.370Z,12.67
2022-10-04T09:48:42.186Z,12.94
2022-10-04T09:51:26.777Z,12.72
2022-10-04T09:54:07.350Z,12.99
2022-10-04T09:57:07.695Z,12.72
2022-10-04T09:59:56.733Z,12.59
2022-10-04T10:02:32.390Z,12.77
2022-10-04T10:05:23.019Z,13.40
2022-10-04T10:08:07.507Z,13.36
2022-10-04T10:10:47.671Z,13.51
2022-10-04T10:13:57.852Z,13.95
2022-10-04T10:17:03.380Z,14.23
2022-10-04T10:19:48.319Z,14.18
2022-10-04T10:22:27.612Z,14.27
2022-10-04T10:25:10.250Z,14.28
2022-10-04T10:28:07.944Z,14.74
2022-10-04T10:31:11.418Z,15.02
2022-10-04T10:34:13.944Z,15.20
2022-10-04T10:37:06.523Z,15.47
2022-10-04T10:39:51.101Z,14.70
2022-10-04T10:42:39.100Z,15.29
2022-10-04T10:45:17.683Z,15.78
2022-10-04T10:47:54.123Z,15.51
2022-10-04T10:50:43.699Z,15.08
2022-10-04T10:53:29.650Z,15.87
2022-10-04T10:56:27.999Z,15.51
2022-10-04T10:59:22.996Z,15.35
2022-10-04T11:01:57.435Z,15.92
2022-10-04T11:04:44.047Z,15.56
2022-10-04T11:07:46.335Z,15.90
2022-10-04T11:10:12.789Z,16.24
2022-10-04T11:13:19.732Z,15.90
2022-10-04T11:15:59.069Z,15.66
2022-10-04T11:18:46.428Z,15.69
2022-10-04T11:21:44.164Z,16.16
2022-10-04T11:24:32.596Z,16.83
2022-10-04T11:27:30.238Z,16.93
2022-10-04T11:30:02.419Z,16.61
2022-10-04T11:33:17.180Z,16.63
2022-10-04T11:36:02.592Z,17.19
2022-10-04T11:38:51.790Z,16.98
2022-10-04T11:41:46.668Z,17.50
2022-10-04T11:44:50.922Z,17.33
2022-10-04T11:47:39.420Z,18.07
2022-10-04T11:50:09.415Z,17.85
2022-10-04T11:52:59.252Z,18.47
2022-10-04T11:55:55.411Z,18.75
2022-10-04T11:58:43.337Z,18.74
2022-10-04T12:01:57.794Z,18.49
2022-10-04T12:04:41.143Z,18.58
2022-10-04T12:07:26.552Z,18.51
2022-10-04T12:10:24.374Z,17.92
2022-10-04T12:13:12.439Z,17.83
2022-10-04T12:15:50.983Z,17.97
2022-10-04T12:18:27.531Z,17.27
2022-10-04T12:20:59.944Z,17.14
2022-10-04T12:23:44.981Z,17.43
2022-10-04T12:26:19.386Z,17.90
2022-10-04T12:28:58.165Z,17.98
2022-10-04T12:31:40.984Z,18.31
2022-10-04T12:34:10.501Z,18.61
2022-10-04T12:36:48.366Z,18.28
2022-10-04T12:39:26.436Z,17.96
2022-10-04T12:42:10.955Z,18.17
2022-10-04T12:44:55.036Z,18.04
2022-10-04T12:47:42.679Z,18.06
2022-10-04T12:50:35.525Z,18.22
2022-10-04T12:53:20.607Z,18.22
2022-10-04T12:56:00.603Z,18.64
2022-10-04T12:58:36.165Z,18.41
2022-10-04T13:01:17.077Z,18.22
2022-10-04T13:03:43.472Z,18.24
2022-10-04T13:06:13.893Z,17.76
2022-10-04T13:08:50.774Z,18.51
2022-10-04T13:11:37.386Z,18.49
2022-10-04T13:14:26.978Z,18.87
2022-10-04T13:20:21.315Z,19.13
2022-10-04T13:23:22.578Z,19.32
2022-10-04T13:26:02.684Z,19.63
2022-10-04T13:29:01.157Z,19.66
2022-10-04T13:31:51.184Z,19.88
2022-10-04T13:34:57.359Z,19.97
2022-10-04T13:37:42.896Z,19.79
2022-10-04T13:40:50.470Z,20.03
2022-10-04T13:43:27.567Z,19.58
2022-10-04T13:46:07.389Z,19.01
2022-10-04T13:49:18.417Z,19.09
2022-10-04T13:51:44.973Z,19.57
2022-10-04T13:54:40.522Z,19.83
2022-10-04T13:57:30.922Z,19.78
2022-10-04T14:00:11.954Z,19.61
2022-10-04T14:02:50.461Z,19.60
2022-10-04T14:05:23.025Z,19.63
2022-10-04T14:08:17.187Z,19.81
2022-10-04T14:10:43.543Z,19.59
2022-10-04T14:13:47.881Z,19.67
2022-10-04T14:16:29.382Z,19.14
2022-10-04T14:19:22.336Z,19.27
2022-10-04T14:22:13.427Z,19.45
2022-10-04T14:24:41.266Z,19.29
2022-10-04T14:27:37.701Z,19.30
2022-10-04T14:30:19.524Z,19.27
2022-10-04T14:33:18.654Z,19.46
2022-10-04T14:36:03.420Z,18.96
2022-10-04T14:38:38.790Z,19.06
2022-10-04T14:41:38.948Z,18.72
2022-10-04T14:44:20.414Z,18.69
2022-10-04T14:47:11.454Z,18.79
2022-10-04T14:50:01.166Z,18.55
2022-10-04T14:53:12.972Z,18.28
2022-10-04T14:55:57.755Z,18.11
2022-10-04T14:58:43.095Z,18.07
2022-10-04T15:01:22.265Z,18.37
2022-10-04T15:04:09.860Z,18.19
2022-10-04T15:06:39.211Z,18.19
2022-10-04T15:09:05.512Z,18.13
2022-10-04T15:11:40.567Z,18.23
2022-10-04T15:14:29.541Z,18.27
2022-10-04T15:16:59.579Z,18.31
2022-10-04T15:19:53.114Z,18.10
2022-10-04T15:22:28.396Z,17.89
2022-10-04T15:24:55.200Z,17.77
2022-10-04T15:27:34.263Z,17.67
2022-10-04T15:30:09.847Z,17.61
2022-10-04T15:33:09.226Z,17.66
2022-10-04T15:35:54.185Z,17.63
2022-10-04T15:38:36.161Z,17.61
2022-10-04T15:41:08.337Z,17.66
2022-10-04T15:43:40.925Z,17.67
2022-10-04T15:46:42.044Z,17.57
2022-10-04T15:49:22.945Z,17.47
2022-10-04T15:51:55.476Z,17.44
2022-10-04T15:54:47.405Z,17.30
2022-10-04T15:57:37.229Z,17.17
2022-10-04T16:00:14.640Z,17.28
2022-10-04T16:02:50.283Z,17.07
2022-10-04T16:05:39.238Z,16.99
2022-10-04T16:08:14.666Z,16.97
2022-10-04T16:11:15.112Z,17.09
2022-10-04T16:13:45.339Z,17.08
2022-10-04T16:16:17.600Z,16.83
2022-10-04T16:19:02.804Z,16.84
2022-10-04T16:21:47.671Z,16.80
2022-10-04T16:24:19.783Z,16.66
2022-10-04T16:26:46.357Z,16.71
2022-10-04T16:29:34.466Z,16.54
2022-10-04T16:32:19.174Z,16.45
2022-10-04T16:35:02.115Z,16.46
2022-10-04T16:37:55.715Z,16.31
2022-10-04T16:40:37.740Z,16.14
2022-10-04T16:43:26.691Z,16.07
2022-10-04T16:46:14.753Z,16.04
2022-10-04T16:48:57.960Z,15.89
2022-10-04T16:51:46.679Z,15.79
2022-10-04T16:54:56.874Z,15.58
2022-10-04T16:57:26.165Z,15.44
2022-10-04T16:59:58.883Z,15.38
2022-10-04T17:02:37.510Z,15.37
2022-10-04T17:05:44.653Z,15.22
2022-10-04T17:08:17.212Z,15.09
2022-10-04T17:10:46.423Z,15.00
2022-10-04T17:13:19.487Z,14.88
2022-10-04T17:16:24.015Z,14.65
2022-10-04T17:19:09.353Z,14.48
2022-10-04T17:21:57.614Z,14.23
2022-10-04T17:24:59.568Z,14.06
2022-10-04T17:27:27.507Z,13.90
2022-10-04T17:30:03.208Z,13.82
2022-10-04T17:32:57.747Z,13.73
2022-10-04T17:36:01.544Z,13.65
2022-10-04T17:38:41.407Z,13.48
2022-10-04T17:41:17.801Z,13.35
2022-10-04T17:44:21.901Z,13.20
2022-10-04T17:47:14.746Z,13.12
2022-10-04T17:49:52.773Z,13.05
2022-10-04T17:52:27.665Z,12.95
2022-10-04T17:54:59.315Z,12.89
2022-10-04T17:57:34.521Z,12.81
2022-10-04T18:00:14.345Z,12.74
2022-10-04T18:03:00.992Z,12.68
2022-10-04T18:05:43.372Z,12.62
2022-10-04T18:08:12.739Z,12.53
2022-10-04T18:10:50.509Z,12.44
2022-10-04T18:13:36.003Z,12.41
2022-10-04T18:16:23.977Z,12.34
2022-10-04T18:18:50.670Z,12.32
2022-10-04T18:21:27.648Z,12.25
2022-10-04T18:23:55.518Z,12.24
2022-10-04T18:26:23.400Z,12.17
2022-10-04T18:28:52.945Z,12.11
2022-10-04T18:31:24.648Z,12.08
2022-10-04T18:33:52.494Z,12.05
2022-10-04T18:36:24.298Z,11.99
2022-10-04T18:39:17.982Z,11.93
2022-10-04T18:42:15.737Z,11.84
2022-10-04T18:44:47.322Z,11.74
2022-10-04T18:47:45.022Z,11.67
2022-10-04T18:50:22.272Z,11.56
2022-10-04T18:53:10.613Z,11.48
2022-10-04T18:55:55.508Z,11.39
2022-10-04T18:58:40.111Z,11.33
2022-10-04T19:01:32.766Z,11.26
2022-10-04T19:04:13.399Z,11.21
2022-10-04T19:06:46.443Z,11.14
2022-10-04T19:09:16.092Z,11.05
2022-10-04T19:11:51.781Z,10.99
2022-10-04T19:14:36.636Z,10.94
2022-10-04T19:17:41.300Z,10.87
2022-10-04T19:20:19.482Z,10.82
2022-10-04T19:23:04.682Z,10.79
2022-10-04T19:25:35.155Z,10.74
2022-10-04T19:28:17.390Z,10.72
2022-10-04T19:31:02.069Z,10.69
2022-10-04T19:33:50.363Z,10.64
2022-10-04T19:36:23.354Z,10.55
2022-10-04T19:39:12.375Z,10.51
2022-10-04T19:41:51.663Z,10.45
2022-10-04T19:44:51.906Z,10.36
2022-10-04T19:47:39.031Z,10.27
2022-10-04T19:50:32.103Z,10.22
2022-10-04T19:53:17.078Z,10.15
2022-10-04T19:55:57.955Z,10.11
2022-10-04T19:58:30.347Z,10.07
2022-10-04T20:00:56.848Z,10.05
2022-10-04T20:03:23.275Z,10.04
2022-10-04T20:05:52.264Z,10.00
2022-10-04T20:08:49.652Z,9.97
2022-10-04T20:11:37.523Z,9.93
2022-10-04T20:14:06.712Z,9.88
2022-10-04T20:16:48.983Z,9.85
2022-10-04T20:19:20.056Z,9.83
2022-10-04T20:21:46.503Z,9.80
2022-10-04T20:24:18.267Z,9.78
2022-10-04T20:26:49.393Z,9.70
2022-10-04T20:29:37.608Z,9.66
2022-10-04T20:32:06.044Z,9.61
2022-10-04T20:34:38.560Z,9.60
2022-10-04T20:37:08.341Z,9.57
2022-10-04T20:39:40.680Z,9.54
2022-10-04T20:42:25.253Z,9.51
2022-10-04T20:44:57.333Z,9.43
2022-10-04T20:47:43.048Z,9.38
2022-10-04T20:50:09.499Z,9.34
2022-10-04T20:52:36.867Z,9.29
2022-10-04T20:55:16.799Z,9.29
2022-10-04T20:57:43.212Z,9.25
2022-10-04T21:00:24.430Z,9.16
2022-10-04T21:03:08.554Z,9.13
2022-10-04T21:05:35.182Z,9.09
2022-10-04T21:08:23.082Z,9.04
2022-10-04T21:11:09.479Z,9.00
2022-10-04T21:13:56.739Z,8.94
2022-10-04T21:16:36.954Z,8.87
2022-10-04T21:19:29.223Z,8.84
2022-10-04T21:21:56.407Z,8.83
2022-10-04T21:24:40.256Z,8.80
2022-10-04T21:27:09.490Z,8.75
2022-10-04T21:29:37.217Z,8.72
2022-10-04T21:32:04.417Z,8.69
2022-10-04T21:34:51.837Z,8.64
2022-10-04T21:37:18.392Z,8.63
2022-10-04T21:39:45.238Z,8.61
2022-10-04T21:42:11.989Z,8.58
2022-10-04T21:44:38.353Z,8.53
2022-10-04T21:47:04.855Z,8.56
2022-10-04T21:49:31.357Z,8.56
2022-10-04T21:51:57.806Z,8.52
2022-10-04T21:54:24.216Z,8.45
2022-10-04T21:56:50.769Z,8.42
2022-10-04T21:59:17.263Z,8.39
2022-10-04T22:01:43.606Z,8.33
2022-10-04T22:04:10.082Z,8.29
2022-10-04T22:06:36.612Z,8.30
2022-10-04T22:09:04.320Z,8.28
2022-10-04T22:11:30.898Z,8.24
2022-10-04T22:13:57.399Z,8.19
2022-10-04T22:16:23.799Z,8.17
2022-10-04T22:18:50.349Z,8.16
2022-10-04T22:21:16.819Z,8.10
2022-10-04T22:23:44.514Z,8.08
2022-10-04T22:26:16.408Z,8.06
2022-10-04T22:28:53.663Z,8.02
2022-10-04T22:31:27.512Z,7.95
2022-10-04T22:33:54.755Z,7.91
2022-10-04T22:36:39.929Z,7.89
2022-10-04T22:39:17.493Z,7.83
2022-10-04T22:41:47.022Z,7.79
2022-10-04T22:44:18.021Z,7.75
2022-10-04T22:46:47.291Z,7.75
2022-10-04T22:49:16.907Z,7.71
2022-10-04T22:51:47.316Z,7.70
2022-10-04T22:54:17.456Z,7.64
2022-10-04T22:56:44.476Z,7.58
2022-10-04T22:59:13.478Z,7.55
2022-10-04T23:01:40.537Z,7.53
2022-10-04T23:04:20.888Z,7.49
2022-10-04T23:06:48.383Z,7.46
2022-10-04T23:09:15.042Z,7.46
2022-10-04T23:11:41.635Z,7.44
2022-10-04T23:14:08.124Z,7.41
2022-10-04T23:16:36.489Z,7.37
2022-10-04T23:19:13.040Z,7.33
2022-10-04T23:21:42.974Z,7.29
2022-10-04T23:24:21.466Z,7.29
2022-10-04T23:26:52.777Z,7.29
2022-10-04T23:29:19.505Z,7.26
2022-10-04T23:31:46.882Z,7.24
2022-10-04T23:34:17.876Z,7.26
2022-10-04T23:36:45.460Z,7.24
2022-10-04T23:39:19.620Z,7.24
2022-10-04T23:41:46.274Z,7.20
2022-10-04T23:44:14.446Z,7.17
2022-10-04T23:46:40.960Z,7.14
2022-10-04T23:49:15.240Z,7.13
2022-10-04T23:51:42.476Z,7.10
2022-10-04T23:54:18.354Z,7.08
2022-10-04T23:56:45.880Z,7.07
2022-10-04T23:59:21.822Z,7.04
